Santurtzi, Spain
Current Conditions -  °F | °C
As of 11:30 PM on Saturday 25 Oct 2014 (Local Time) from LEBB Reporting Station
Few Clouds Few Clouds  
Wind Chill: 15°   Ceiling: Unl
Heat Index: 15°   Visibility: 4mi
Dew Point: 13°   Wind: 2mph
Humidity: 88%   Direction: NA
Pressure: 30.21"   Gusts: NA
Location:  43.33°N, 3.03°W
Report Text: LEBB 252130Z VRB02KT 6000 FEW007 15/13 Q1023 TEMPO 4000 BRBKN008
Loading
Personal Weather Stations






























Interactive Weather Map
Tropical Storm Tracking
New forecast layout! Learn more

10-Day Weather Forecast

Advertisements
Track Severe Weather on mobile